Time;durP1;ratioP1;P1;durP2;ratioP2;P2;SDS_P1;SDS_P2;PMS_P1;PMS_P2;Temp;Humidity;BMP_temperature;BMP_pressure;BME280_temperature;BME280_humidity;BME280_pressure;Samples;Min_cycle;Max_cycle;Signal;HPM_P1;HPM_P2
2022/06/17 00:02:42;;;;;;;5.13;2.60;;;;;;;19.25;56.75;100669.59;4995763;28;20104;-56
2022/06/17 00:05:26;;;;;;;3.15;2.42;;;;;;;19.23;56.60;100669.63;4994619;28;20556;-55
2022/06/17 00:08:16;;;;;;;3.78;2.80;;;;;;;19.23;57.21;100684.53;4995525;28;20058;-55
2022/06/17 00:11:00;;;;;;;5.70;2.50;;;;;;;19.23;56.99;100684.53;4994825;28;20449;-57
2022/06/17 00:13:45;;;;;;;4.35;2.70;;;;;;;19.22;56.86;100677.53;4995516;28;20126;-55
2022/06/17 00:16:29;;;;;;;5.13;3.15;;;;;;;19.21;56.78;100671.41;4995834;28;20065;-56
2022/06/17 00:19:14;;;;;;;5.88;3.28;;;;;;;19.23;56.81;100671.41;4994297;28;20049;-56
2022/06/17 00:21:58;;;;;;;6.80;2.80;;;;;;;19.23;56.80;100671.41;4994198;28;20568;-56
2022/06/17 00:24:42;;;;;;;5.55;2.40;;;;;;;19.22;56.69;100673.13;4995252;28;20597;-55
2022/06/17 00:27:26;;;;;;;5.38;2.90;;;;;;;19.22;56.85;100682.78;4995397;28;20138;-55
2022/06/17 00:30:22;;;;;;;4.05;2.88;;;;;;;19.21;56.98;100687.16;4993492;28;20081;-55
2022/06/17 00:33:07;;;;;;;5.10;2.80;;;;;;;19.22;56.97;100690.69;4994395;28;20096;-55
2022/06/17 00:35:54;;;;;;;4.95;3.30;;;;;;;19.21;57.18;100692.41;4994058;28;20534;-55
2022/06/17 00:38:37;;;;;;;5.18;2.90;;;;;;;19.20;56.72;100685.41;4994358;28;20054;-55
2022/06/17 00:43:42;;;;;;;7.63;3.00;;;;;;;19.15;56.28;100681.97;5091327;27;20141;-56
2022/06/17 00:46:45;;;;;;;5.88;3.55;;;;;;;19.14;56.82;100673.22;5075741;28;20418;-56
2022/06/17 00:49:45;;;;;;;3.72;2.85;;;;;;;19.15;56.82;100680.22;5090764;28;20204;-57
2022/06/17 00:52:45;;;;;;;5.20;2.97;;;;;;;19.17;56.84;100685.44;5090941;28;20071;-57
2022/06/17 00:55:57;;;;;;;4.03;2.80;;;;;;;19.16;56.87;100676.69;5075786;28;20051;-56
2022/06/17 00:59:00;;;;;;;3.85;2.83;;;;;;;19.15;56.97;100663.59;5075185;28;20534;-56
2022/06/17 01:02:00;;;;;;;5.57;3.33;;;;;;;19.17;56.74;100672.31;5075534;28;20055;-57
2022/06/17 01:04:48;;;;;;;4.43;3.38;;;;;;;19.16;56.77;100676.69;5075726;28;20547;-57
2022/06/17 01:07:40;;;;;;;4.78;3.30;;;;;;;19.16;57.11;100688.94;5090877;28;20128;-57
2022/06/17 01:10:25;;;;;;;4.45;3.05;;;;;;;19.15;57.21;100682.84;5062102;28;20040;-57
2022/06/17 01:13:10;;;;;;;4.15;3.28;;;;;;;19.16;57.11;100683.69;5075728;28;20453;-57
2022/06/17 01:15:54;;;;;;;6.22;3.33;;;;;;;19.16;56.91;100686.31;5089999;28;20423;-57
2022/06/17 01:18:42;;;;;;;4.63;2.97;;;;;;;19.14;56.93;100688.97;5090144;28;20426;-57
2022/06/17 01:21:47;;;;;;;4.65;3.30;;;;;;;19.14;56.83;100693.38;5074774;28;20097;-57
2022/06/17 01:24:31;;;;;;;6.93;3.42;;;;;;;19.13;56.76;100684.59;5074773;28;20513;-57
2022/06/17 01:27:18;;;;;;;4.03;3.40;;;;;;;19.12;56.97;100682.84;5090204;28;20481;-57
2022/06/17 01:30:06;;;;;;;5.28;3.40;;;;;;;19.13;57.04;100691.63;5074903;28;20051;-56
2022/06/17 01:32:56;;;;;;;6.93;3.05;;;;;;;19.13;57.00;100689.00;5074644;28;20423;-57
2022/06/17 01:35:59;;;;;;;5.28;3.22;;;;;;;19.11;57.08;100691.63;5075256;28;20178;-56
2022/06/17 01:38:46;;;;;;;8.43;3.88;;;;;;;19.11;56.99;100689.00;5074564;28;20092;-56
2022/06/17 01:41:32;;;;;;;4.25;3.17;;;;;;;19.10;56.99;100681.16;5074073;28;20548;-57
2022/06/17 01:44:33;;;;;;;5.65;3.65;;;;;;;19.10;57.01;100684.63;5090006;28;20048;-57
2022/06/17 01:47:21;;;;;;;6.00;3.60;;;;;;;19.10;56.99;100682.00;5090336;28;20082;-57
2022/06/17 01:50:11;;;;;;;3.75;3.40;;;;;;;19.10;57.20;100678.50;5074605;28;20050;-56
2022/06/17 01:52:58;;;;;;;4.28;2.90;;;;;;;19.09;57.09;100672.38;5073365;28;20125;-56
2022/06/17 01:55:49;;;;;;;6.95;3.25;;;;;;;19.09;57.06;100677.63;5061323;28;20093;-57
2022/06/17 01:58:41;;;;;;;5.43;3.10;;;;;;;19.09;57.02;100676.78;5076106;28;20097;-57
2022/06/17 02:01:28;;;;;;;7.22;3.30;;;;;;;19.09;57.29;100679.41;5060809;28;20043;-57
2022/06/17 02:04:19;;;;;;;5.32;3.72;;;;;;;19.08;57.11;100683.75;5076564;28;20044;-57
2022/06/17 02:07:27;;;;;;;4.22;3.10;;;;;;;19.07;57.02;100684.69;5061345;28;20055;-57
2022/06/17 02:10:11;;;;;;;4.25;3.35;;;;;;;19.06;57.17;100680.31;5060809;28;20043;-57
2022/06/17 02:12:56;;;;;;;4.40;3.30;;;;;;;19.06;57.23;100688.19;5076024;28;20055;-57
2022/06/17 02:15:42;;;;;;;5.43;3.47;;;;;;;19.06;56.92;100688.19;5060600;28;20101;-56
2022/06/17 02:18:30;;;;;;;4.18;2.83;;;;;;;19.05;57.05;100696.94;5060480;28;20101;-56
2022/06/17 02:21:24;;;;;;;5.40;3.13;;;;;;;19.04;57.19;100689.94;5060709;28;20051;-57
2022/06/17 02:24:10;;;;;;;5.18;2.95;;;;;;;19.04;57.32;100692.59;5060790;28;20051;-57
2022/06/17 02:26:56;;;;;;;4.63;3.15;;;;;;;19.02;57.23;100678.59;5060282;28;20043;-56
2022/06/17 02:29:42;;;;;;;4.38;2.90;;;;;;;19.01;57.24;100692.59;5060777;28;20051;-55
2022/06/17 02:32:29;;;;;;;6.07;3.70;;;;;;;19.02;57.19;100694.34;5060206;28;20055;-55
2022/06/17 02:35:31;;;;;;;6.35;3.85;;;;;;;19.00;57.24;100686.47;5060181;28;20464;-56
2022/06/17 02:38:18;;;;;;;5.53;3.22;;;;;;;19.00;57.31;100688.22;5060450;28;20093;-55
2022/06/17 02:41:06;;;;;;;5.13;3.30;;;;;;;18.98;56.88;100685.63;5075515;28;20525;-55
2022/06/17 02:43:59;;;;;;;4.38;3.13;;;;;;;18.97;57.06;100681.25;5060431;28;20465;-55
2022/06/17 02:46:44;;;;;;;7.35;3.28;;;;;;;18.97;57.23;100690.88;5060473;28;20047;-56
2022/06/17 02:49:32;;;;;;;6.15;3.40;;;;;;;18.96;57.27;100689.13;5059931;28;20577;-55
2022/06/17 02:52:19;;;;;;;4.53;3.33;;;;;;;18.96;57.38;100686.50;5060342;28;20141;-57
2022/06/17 02:55:14;;;;;;;6.38;3.67;;;;;;;18.95;57.15;100685.66;5074858;28;20121;-56
2022/06/17 02:58:12;;;;;;;6.13;3.50;;;;;;;18.96;57.00;100697.00;5074906;28;20079;-57
2022/06/17 03:00:57;;;;;;;5.15;3.33;;;;;;;18.95;57.34;100692.63;5059967;28;20106;-55
2022/06/17 03:03:42;;;;;;;5.88;3.55;;;;;;;18.95;57.33;100687.38;5059857;28;20079;-55
2022/06/17 03:06:36;;;;;;;5.57;3.65;;;;;;;18.94;57.40;100694.41;5058627;28;20043;-55
2022/06/17 03:09:22;;;;;;;3.83;3.10;;;;;;;18.93;57.37;100689.13;5059495;28;20074;-56
2022/06/17 03:12:09;;;;;;;5.65;3.88;;;;;;;18.93;57.09;100681.25;5074389;28;20046;-56
2022/06/17 03:15:06;;;;;;;7.45;3.97;;;;;;;18.92;57.17;100683.00;5059417;28;20121;-56
2022/06/17 03:17:50;;;;;;;5.47;3.38;;;;;;;18.90;57.16;100683.91;5059222;28;20510;-55
2022/06/17 03:20:37;;;;;;;5.70;3.80;;;;;;;18.90;57.48;100686.53;5074824;28;20093;-55
2022/06/17 03:23:42;;;;;;;4.20;3.20;;;;;;;18.89;57.30;100685.66;5058931;28;20079;-57
2022/06/17 03:26:31;;;;;;;6.03;4.07;;;;;;;18.89;57.54;100684.78;5074724;28;20515;-57
2022/06/17 03:29:16;;;;;;;4.75;3.63;;;;;;;18.88;57.24;100686.53;5074337;28;20043;-56
2022/06/17 03:32:06;;;;;;;4.93;3.42;;;;;;;18.89;57.37;100690.06;5059048;28;20060;-57
2022/06/17 03:34:56;;;;;;;5.13;3.30;;;;;;;18.87;57.59;100693.56;5059149;28;20082;-57
2022/06/17 03:37:57;;;;;;;7.15;3.75;;;;;;;18.86;57.50;100691.81;5074330;28;20079;-56
2022/06/17 03:40:51;;;;;;;7.90;3.40;;;;;;;18.85;57.55;100690.06;5058791;28;20102;-55
2022/06/17 03:43:59;;;;;;;4.20;3.08;;;;;;;18.86;57.47;100690.94;5058694;28;20182;-55
2022/06/17 03:46:51;;;;;;;8.38;3.85;;;;;;;18.84;57.68;100688.31;5058743;28;20082;-55
2022/06/17 03:49:50;;;;;;;5.00;3.65;;;;;;;18.84;57.41;100683.06;5059143;28;20047;-55
2022/06/17 03:52:43;;;;;;;3.55;3.10;;;;;;;18.84;57.60;100683.06;5058899;28;20465;-56
2022/06/17 03:55:28;;;;;;;7.53;3.50;;;;;;;18.83;57.61;100685.72;5058933;28;20094;-55
2022/06/17 03:58:17;;;;;;;5.93;3.40;;;;;;;18.83;57.60;100688.34;5073967;28;20067;-56
2022/06/17 04:01:14;;;;;;;4.72;3.55;;;;;;;18.82;57.35;100694.47;5058988;28;20050;-55
2022/06/17 04:04:03;;;;;;;6.80;3.38;;;;;;;18.83;57.70;100701.47;5073724;28;20156;-55
2022/06/17 04:06:50;;;;;;;5.97;4.05;;;;;;;18.82;57.47;100700.59;5058343;28;20089;-57
2022/06/17 04:09:39;;;;;;;4.90;3.65;;;;;;;18.81;57.61;100698.84;5058593;28;20055;-55
2022/06/17 04:12:27;;;;;;;8.38;3.30;;;;;;;18.81;57.69;100696.22;5058666;28;20102;-55
2022/06/17 04:15:35;;;;;;;6.22;3.38;;;;;;;18.81;57.83;100704.09;5058308;28;20051;-56
2022/06/17 04:18:19;;;;;;;5.35;3.03;;;;;;;18.80;57.53;100707.59;5073541;28;20412;-55
2022/06/17 04:21:06;;;;;;;6.30;3.20;;;;;;;18.80;57.39;100712.00;5073427;28;20048;-55
2022/06/17 04:23:51;;;;;;;4.68;3.40;;;;;;;18.80;57.84;100720.72;5058725;28;20060;-56
2022/06/17 04:26:37;;;;;;;5.25;3.38;;;;;;;18.79;57.54;100726.00;5073293;28;20415;-56
2022/06/17 04:29:42;;;;;;;7.25;3.28;;;;;;;18.78;57.58;100729.50;5058700;28;20110;-55
2022/06/17 04:32:33;;;;;;;5.20;3.20;;;;;;;18.74;57.35;100728.66;5073258;28;20094;-55
2022/06/17 04:35:17;;;;;;;4.57;3.55;;;;;;;18.72;57.35;100727.81;5073360;28;20047;-55
2022/06/17 04:38:02;;;;;;;7.20;3.60;;;;;;;18.68;57.17;100726.97;5073688;28;20117;-56
2022/06/17 04:40:55;;;;;;;4.32;2.90;;;;;;;18.66;57.32;100728.72;5072865;28;20474;-55
2022/06/17 04:43:47;;;;;;;4.97;3.55;;;;;;;18.66;57.27;100726.09;5057842;28;20098;-55
2022/06/17 04:46:41;;;;;;;5.60;3.03;;;;;;;18.66;57.32;100719.97;5072957;28;20527;-55
2022/06/17 04:49:28;;;;;;;5.75;3.55;;;;;;;18.65;57.32;100710.34;5073173;28;20468;-55
2022/06/17 04:52:42;;;;;;;5.38;2.90;;;;;;;18.63;57.18;100705.13;5058361;28;20054;-56
2022/06/17 04:55:32;;;;;;;5.75;3.28;;;;;;;18.63;57.41;100699.88;5073065;28;20550;-56
2022/06/17 04:58:20;;;;;;;3.95;3.10;;;;;;;18.63;57.28;100693.72;5058365;28;20059;-56
2022/06/17 05:01:17;;;;;;;4.55;3.30;;;;;;;18.62;57.46;100694.59;5057866;28;20083;-55
2022/06/17 05:04:02;;;;;;;8.65;3.60;;;;;;;18.63;57.39;100691.97;5058472;28;20110;-56
2022/06/17 05:06:46;;;;;;;4.70;3.20;;;;;;;18.62;57.53;100676.22;5072918;28;20079;-55
2022/06/17 05:09:37;;;;;;;4.03;2.97;;;;;;;18.64;57.43;100682.34;5073457;28;20047;-55
2022/06/17 05:12:33;;;;;;;7.03;3.75;;;;;;;18.64;57.40;100682.34;5058155;28;20525;-55
2022/06/17 05:15:20;;;;;;;8.63;3.08;;;;;;;18.64;57.34;100682.34;5073225;28;20058;-56
2022/06/17 05:18:04;;;;;;;5.78;3.10;;;;;;;18.64;57.46;100675.34;5057795;28;20128;-55
2022/06/17 05:20:48;;;;;;;5.25;3.30;;;;;;;18.63;57.57;100663.13;5072782;28;20063;-55
2022/06/17 05:23:32;;;;;;;;;;;;;;;18.61;57.38;100657.00;5073442;28;20087;-55
2022/06/17 05:26:17;;;;;;;4.07;3.25;;;;;;;18.58;57.42;100666.66;5073222;28;20381;-55
2022/06/17 05:29:01;;;;;;;5.03;3.45;;;;;;;18.58;57.42;100672.75;5073834;28;20129;-55
2022/06/17 05:31:49;;;;;;;;;;;;;;;18.56;57.37;100666.66;5062286;28;20047;-55
2022/06/17 05:34:36;;;;;;;9.45;3.83;;;;;;;18.58;57.78;100678.00;5076913;28;19924;-55
2022/06/17 05:37:20;;;;;;;4.57;3.28;;;;;;;18.59;57.71;100687.63;5060973;28;20093;-56
2022/06/17 05:40:06;;;;;;;4.93;3.15;;;;;;;18.59;57.66;100702.53;5076613;28;20047;-56
2022/06/17 05:42:50;;;;;;;6.63;3.42;;;;;;;18.58;57.66;100695.53;5060846;28;20519;-56
2022/06/17 05:45:34;;;;;;;;;;;;;;;18.55;57.44;100691.16;5076621;28;20110;-56
2022/06/17 05:48:18;;;;;;;6.47;3.50;;;;;;;18.55;57.44;100702.53;5076705;28;19920;-55
2022/06/17 05:51:02;;;;;;;7.78;4.10;;;;;;;18.55;57.84;100692.03;5076240;28;20351;-55
2022/06/17 05:53:46;;;;;;;7.47;3.47;;;;;;;18.55;57.26;100694.66;5076260;28;20056;-55
2022/06/17 05:56:30;;;;;;;5.03;3.20;;;;;;;18.56;57.42;100691.16;5075958;28;20044;-56
2022/06/17 05:59:14;;;;;;;26.50;6.00;;;;;;;18.56;57.55;100683.28;5075948;28;20131;-55
2022/06/17 06:01:58;;;;;;;19.38;4.55;;;;;;;18.57;57.62;100686.78;5075854;28;20067;-55
2022/06/17 06:04:42;;;;;;;8.48;4.30;;;;;;;18.58;57.63;100685.88;5076132;28;20480;-55
2022/06/17 06:07:28;;;;;;;13.02;4.32;;;;;;;18.59;57.68;100679.75;5075708;28;20046;-56
2022/06/17 06:10:12;;;;;;;11.85;4.80;;;;;;;18.61;57.75;100669.28;5060990;28;20047;-56
2022/06/17 06:13:05;;;;;;;;;;;;;;;18.60;57.87;100668.38;5076146;28;20051;-57
2022/06/17 06:15:53;;;;;;;11.43;5.32;;;;;;;18.61;57.91;100669.28;5075633;28;19973;-56
2022/06/17 06:18:41;;;;;;;14.18;4.28;;;;;;;18.64;57.71;100671.84;5061006;28;20123;-56
2022/06/17 06:21:26;;;;;;;7.38;3.80;;;;;;;18.64;57.96;100669.22;5061003;28;20094;-57
2022/06/17 06:24:12;;;;;;;10.68;4.00;;;;;;;18.66;58.09;100670.09;5075720;28;20110;-57
2022/06/17 06:26:56;;;;;;;6.65;4.38;;;;;;;18.66;58.01;100663.09;5075523;28;20052;-55
2022/06/17 06:29:40;;;;;;;11.00;3.97;;;;;;;18.68;58.19;100668.31;5075104;28;20086;-55
2022/06/17 06:32:24;;;;;;;7.00;4.55;;;;;;;18.68;58.08;100668.31;5060579;28;20051;-55
2022/06/17 06:35:14;;;;;;;7.57;4.28;;;;;;;18.68;58.34;100669.22;5060297;28;20101;-55
2022/06/17 06:37:59;;;;;;;11.70;4.00;;;;;;;18.68;58.30;100665.69;5060445;28;20055;-55
2022/06/17 06:40:43;;;;;;;8.85;3.78;;;;;;;18.68;58.28;100668.31;5075241;28;20051;-56
2022/06/17 06:43:27;;;;;;;6.03;3.53;;;;;;;18.66;58.26;100662.22;5074671;28;20110;-55
2022/06/17 06:46:13;;;;;;;5.53;3.92;;;;;;;18.66;58.31;100663.09;5075593;28;20101;-55
2022/06/17 06:48:57;;;;;;;7.65;3.83;;;;;;;18.66;58.16;100656.97;5060028;28;20114;-57
2022/06/17 06:51:41;;;;;;;7.53;3.20;;;;;;;18.65;58.09;100653.47;5075561;28;20094;-56
2022/06/17 06:54:25;;;;;;;5.78;3.50;;;;;;;18.64;58.16;100650.84;5075165;28;20125;-56
2022/06/17 06:57:10;;;;;;;6.30;3.03;;;;;;;18.60;58.34;100654.41;5060101;28;20137;-56
2022/06/17 06:59:59;;;;;;;6.90;3.28;;;;;;;18.59;58.23;100658.75;5059759;28;20480;-57
2022/06/17 07:02:44;;;;;;;6.22;3.28;;;;;;;18.61;58.21;100658.75;5059913;28;20519;-56
2022/06/17 07:05:29;;;;;;;10.75;3.53;;;;;;;18.62;58.19;100668.34;5074750;28;20075;-57
2022/06/17 07:08:15;;;;;;;6.00;3.10;;;;;;;18.62;58.13;100676.22;5059797;28;20664;-57
2022/06/17 07:11:00;;;;;;;6.97;3.40;;;;;;;18.61;58.14;100671.88;5060090;28;20144;-57
2022/06/17 07:13:44;;;;;;;5.35;2.95;;;;;;;18.61;58.34;100678.00;5074834;28;20083;-55
2022/06/17 07:16:28;;;;;;;6.65;3.40;;;;;;;18.60;58.39;100675.41;5074706;28;20044;-57
2022/06/17 07:19:15;;;;;;;;;;;;;;;18.58;58.31;100687.66;5059945;28;20109;-56
2022/06/17 07:21:59;;;;;;;10.98;3.33;;;;;;;18.59;58.29;100685.00;5074304;28;19975;-55
2022/06/17 07:24:43;;;;;;;7.03;3.75;;;;;;;18.59;58.19;100668.41;5059215;28;20109;-55
2022/06/17 07:27:26;;;;;;;4.72;2.97;;;;;;;18.60;58.26;100670.16;5074205;28;20196;-56
2022/06/17 07:30:19;;;;;;;5.53;3.58;;;;;;;18.61;58.18;100685.00;5074121;28;20511;-57
2022/06/17 07:33:03;;;;;;;5.38;3.15;;;;;;;18.63;58.06;100686.75;5059530;28;20143;-56
2022/06/17 07:35:49;;;;;;;4.20;2.97;;;;;;;18.62;58.51;100686.72;5074590;28;20098;-56
2022/06/17 07:41:38;;;;;;;7.93;3.10;;;;;;;18.65;58.26;100677.09;5073814;28;20522;-57
2022/06/17 07:44:22;;;;;;;6.65;3.10;;;;;;;18.66;58.52;100664.84;5073771;28;20596;-57
2022/06/17 07:47:12;;;;;;;5.25;3.20;;;;;;;18.66;58.39;100660.47;5073645;28;20083;-57
2022/06/17 07:49:56;;;;;;;6.43;3.00;;;;;;;18.65;58.30;100661.34;5058885;28;20047;-57
2022/06/17 07:52:40;;;;;;;7.00;3.67;;;;;;;18.68;58.36;100652.56;5073264;28;20087;-57
2022/06/17 07:55:24;;;;;;;7.80;3.05;;;;;;;18.69;58.42;100651.69;5073970;28;20042;-57
2022/06/17 07:58:11;;;;;;;6.15;2.95;;;;;;;18.70;58.24;100649.03;5074268;28;20098;-57
2022/06/17 08:00:55;;;;;;;6.05;3.20;;;;;;;18.70;58.31;100640.31;5058873;28;20062;-56
2022/06/17 08:03:40;;;;;;;4.00;2.40;;;;;;;18.72;58.51;100643.78;5073729;28;20525;-56
2022/06/17 08:06:24;;;;;;;6.18;3.50;;;;;;;18.72;58.74;100663.03;5073679;28;20415;-57
2022/06/17 08:09:08;;;;;;;5.10;3.22;;;;;;;18.74;58.46;100673.53;5073546;28;20124;-56
2022/06/17 08:11:52;;;;;;;4.07;2.80;;;;;;;18.74;58.32;100670.91;5073185;28;20047;-57
2022/06/17 08:14:37;;;;;;;5.35;3.17;;;;;;;18.74;58.51;100665.66;5073517;28;20458;-57
2022/06/17 08:17:21;;;;;;;7.85;3.00;;;;;;;18.75;58.36;100669.16;5073959;28;20505;-56
2022/06/17 08:20:20;;;;;;;4.25;2.45;;;;;;;18.74;58.37;100670.91;5073248;28;20151;-57
2022/06/17 08:23:06;;;;;;;7.88;3.22;;;;;;;18.75;58.41;100675.28;5058298;28;20197;-57
2022/06/17 08:25:50;;;;;;;5.80;3.22;;;;;;;18.78;58.42;100680.47;5058501;28;20052;-57
2022/06/17 08:28:34;;;;;;;;;;;;;;;18.78;58.50;100672.59;5059065;28;20055;-57
2022/06/17 08:31:18;;;;;;;5.38;3.92;;;;;;;18.78;58.53;100664.72;5073457;28;20007;-57
2022/06/17 08:34:03;;;;;;;5.35;3.00;;;;;;;18.80;58.39;100667.34;5073494;28;20091;-56
2022/06/17 08:36:47;;;;;;;4.57;2.80;;;;;;;18.83;58.58;100668.19;5058101;28;20105;-57
2022/06/17 08:39:33;;;;;;;4.88;2.92;;;;;;;18.85;58.35;100670.81;5073196;28;20110;-57
2022/06/17 08:42:56;;;;;;;5.03;2.80;;;;;;;18.87;58.41;100669.94;5073120;28;20494;-57
2022/06/17 08:46:14;;;;;;;6.15;3.35;;;;;;;18.90;58.47;100662.91;5058690;28;20102;-57
2022/06/17 08:49:17;;;;;;;4.13;3.03;;;;;;;18.90;58.55;100660.28;5072924;28;20148;-57
2022/06/17 08:52:07;;;;;;;6.93;3.25;;;;;;;18.93;58.57;100660.22;5073000;28;20051;-56
2022/06/17 08:55:06;;;;;;;4.78;2.83;;;;;;;18.96;58.53;100665.50;5073183;28;20067;-56
2022/06/17 08:57:59;;;;;;;6.80;3.33;;;;;;;18.97;58.53;100670.75;5072737;28;20048;-56
2022/06/17 09:00:55;;;;;;;3.10;2.55;;;;;;;18.99;58.63;100670.72;5073142;28;20134;-57
2022/06/17 09:03:39;;;;;;;3.50;2.90;;;;;;;19.00;58.17;100668.06;5073599;28;20407;-55
2022/06/17 09:06:51;;;;;;;6.72;3.00;;;;;;;19.04;58.35;100674.19;5077461;28;20051;-56
2022/06/17 09:10:07;;;;;;;3.88;2.58;;;;;;;19.06;58.25;100667.19;5077021;28;20046;-57
2022/06/17 09:13:10;;;;;;;9.07;2.90;;;;;;;19.08;58.06;100669.78;5076630;28;20051;-57
2022/06/17 09:16:09;;;;;;;3.55;2.65;;;;;;;19.09;58.24;100666.25;5076921;28;20411;-57
2022/06/17 09:18:59;;;;;;;4.40;2.78;;;;;;;19.09;58.29;100659.25;5077145;28;20056;-57
2022/06/17 09:21:53;;;;;;;3.17;2.38;;;;;;;19.11;58.45;100662.72;5076867;28;20051;-57
2022/06/17 09:24:42;;;;;;;4.53;2.78;;;;;;;19.15;58.26;100666.22;5076804;28;20158;-56
2022/06/17 09:27:35;;;;;;;6.22;2.83;;;;;;;19.15;58.33;100661.81;5061909;28;20140;-56
2022/06/17 09:30:24;;;;;;;4.47;2.67;;;;;;;19.19;58.05;100664.44;5061682;28;20048;-57
2022/06/17 09:33:17;;;;;;;12.48;2.83;;;;;;;19.22;58.30;100659.16;5061711;28;20067;-57
2022/06/17 09:36:16;;;;;;;7.13;3.05;;;;;;;19.28;58.01;100656.44;5076711;28;20039;-56
2022/06/17 09:39:24;;;;;;;4.10;2.28;;;;;;;19.32;57.84;100653.75;5061448;28;20047;-56
2022/06/17 09:42:14;;;;;;;5.15;2.42;;;;;;;19.36;57.79;100646.72;5047677;28;20060;-56
2022/06/17 09:45:26;;;;;;;5.65;3.13;;;;;;;19.40;57.65;100637.91;5035836;28;20091;-56
2022/06/17 09:48:18;;;;;;;3.08;2.40;;;;;;;19.43;57.51;100635.25;5035732;28;20100;-55
2022/06/17 09:51:13;;;;;;;5.35;2.47;;;;;;;19.45;57.11;100641.38;5036597;28;20128;-56
2022/06/17 09:53:59;;;;;;;4.00;2.35;;;;;;;19.46;57.14;100637.84;5035974;28;20409;-56
2022/06/17 09:56:57;;;;;;;6.20;3.05;;;;;;;19.50;57.21;100645.69;5036107;28;20591;-55
2022/06/17 09:59:46;;;;;;;5.63;2.30;;;;;;;19.53;56.91;100650.94;5035056;28;20053;-55
2022/06/17 10:02:37;;;;;;;4.65;2.40;;;;;;;19.54;57.10;100644.78;5034940;28;20049;-55
2022/06/17 10:05:59;;;;;;;4.10;2.55;;;;;;;19.55;57.10;100643.88;5035392;28;20569;-56
2022/06/17 10:08:49;;;;;;;8.27;2.22;;;;;;;19.57;56.74;100645.63;5026407;28;20499;-55
2022/06/17 10:12:00;;;;;;;4.78;2.25;;;;;;;19.61;56.86;100646.44;5034945;28;20048;-57
2022/06/17 10:14:59;;;;;;;3.75;2.20;;;;;;;19.63;56.69;100644.66;5035320;28;20056;-55
2022/06/17 10:21:42;;;;;;;3.20;2.15;;;;;;;19.68;56.57;100644.59;5035716;28;20051;-57
2022/06/17 10:24:59;;;;;;;2.90;2.00;;;;;;;19.69;56.65;100641.97;5034930;28;20052;-56
2022/06/17 10:28:16;;;;;;;2.53;1.80;;;;;;;19.70;56.47;100646.31;5034483;28;20056;-58
2022/06/17 10:31:39;;;;;;;5.43;2.20;;;;;;;19.72;56.37;100656.84;5035608;28;20138;-57
2022/06/17 10:34:39;;;;;;;7.35;2.17;;;;;;;19.74;56.25;100657.69;5035711;28;20141;-57
2022/06/17 10:37:23;;;;;;;1.92;1.75;;;;;;;19.76;55.92;100654.13;5035399;28;20056;-55
2022/06/17 10:40:09;;;;;;;3.53;1.90;;;;;;;19.78;56.17;100654.09;5034863;28;20425;-56
2022/06/17 10:42:57;;;;;;;5.70;2.30;;;;;;;19.81;56.15;100654.06;5034155;28;20053;-57
2022/06/17 10:45:41;;;;;;;3.30;2.13;;;;;;;19.82;55.93;100649.72;5034469;28;20045;-57
2022/06/17 10:48:39;;;;;;;5.20;2.60;;;;;;;19.83;55.65;100649.69;5034933;28;20107;-57
2022/06/17 10:51:24;;;;;;;5.78;2.08;;;;;;;19.84;55.65;100629.53;5034646;28;20432;-57
2022/06/17 10:54:22;;;;;;;3.30;2.30;;;;;;;19.86;55.66;100627.72;5034027;28;20057;-57
2022/06/17 10:57:08;;;;;;;2.97;1.90;;;;;;;19.88;55.50;100636.50;5034389;28;20076;-57
2022/06/17 10:59:52;;;;;;;5.20;1.95;;;;;;;19.89;55.83;100635.59;5034079;28;20053;-57
2022/06/17 11:02:36;;;;;;;3.50;1.90;;;;;;;19.91;55.46;100634.72;5035102;28;20049;-57
2022/06/17 11:05:31;;;;;;;3.75;2.13;;;;;;;19.93;55.52;100635.53;5035328;28;20412;-58
2022/06/17 11:08:21;;;;;;;2.88;2.30;;;;;;;19.95;55.41;100632.00;5034302;28;20520;-57
2022/06/17 11:14:25;;;;;;;2.30;1.50;;;;;;;19.99;55.01;100618.81;5034671;28;20052;-55
2022/06/17 11:17:20;;;;;;;2.70;1.73;;;;;;;20.02;55.33;100613.50;5034146;28;20056;-56
2022/06/17 11:20:19;;;;;;;5.68;2.15;;;;;;;20.05;55.17;100623.97;5033567;28;20052;-56
2022/06/17 11:23:17;;;;;;;8.23;2.17;;;;;;;20.10;55.17;100617.78;5034501;28;20154;-56
2022/06/17 11:26:19;;;;;;;2.45;1.80;;;;;;;20.12;55.14;100608.97;5033354;28;20048;-55
2022/06/17 11:29:19;;;;;;;6.57;2.17;;;;;;;20.14;54.71;100609.81;5033890;28;20131;-57
2022/06/17 11:32:33;;;;;;;2.97;1.73;;;;;;;20.18;54.93;100601.00;5033840;28;20072;-57
2022/06/17 11:35:20;;;;;;;3.53;1.57;;;;;;;20.22;54.75;100599.19;5028491;28;20095;-55
2022/06/17 11:38:11;;;;;;;1.35;1.25;;;;;;;20.25;54.74;100601.78;5033613;28;20331;-56
2022/06/17 11:40:55;;;;;;;3.42;1.48;;;;;;;20.26;54.60;100603.53;5033643;28;20397;-55
2022/06/17 11:43:45;;;;;;;3.70;1.80;;;;;;;20.27;54.53;100597.38;5054280;28;20044;-56
2022/06/17 11:46:31;;;;;;;2.92;1.80;;;;;;;20.30;54.43;100606.97;5054054;28;20052;-57
2022/06/17 11:49:17;;;;;;;5.47;2.08;;;;;;;20.31;54.53;100600.81;5053401;28;20048;-56
2022/06/17 11:52:07;;;;;;;4.78;1.90;;;;;;;20.33;54.73;100597.25;5053107;28;20052;-55
2022/06/17 11:54:54;;;;;;;6.30;2.00;;;;;;;20.37;54.71;100598.94;5053613;28;20060;-57
2022/06/17 11:57:40;;;;;;;3.50;1.77;;;;;;;20.39;54.42;100598.94;5053688;28;20380;-57
2022/06/17 12:01:02;;;;;;;3.20;2.20;;;;;;;20.43;54.59;100602.38;5053167;28;20098;-57
2022/06/17 12:03:47;;;;;;;5.78;1.92;;;;;;;20.43;54.44;100589.22;5053352;28;20090;-57
2022/06/17 12:06:44;;;;;;;3.80;2.03;;;;;;;20.46;54.50;100583.91;5053100;28;20098;-57
2022/06/17 12:09:37;;;;;;;5.93;1.90;;;;;;;20.49;54.69;100575.94;5053038;28;20118;-57
2022/06/17 12:12:26;;;;;;;4.50;1.77;;;;;;;20.53;54.39;100581.16;5053738;28;20048;-58
2022/06/17 12:15:37;;;;;;;8.35;2.38;;;;;;;20.55;54.63;100562.69;5052907;28;20102;-57
2022/06/17 12:18:24;;;;;;;2.80;2.00;;;;;;;20.58;54.58;100567.91;5053144;28;20099;-57
2022/06/17 12:21:19;;;;;;;7.35;3.08;;;;;;;20.59;54.66;100563.50;5052540;28;20110;-57
2022/06/17 12:24:21;;;;;;;4.82;2.40;;;;;;;20.62;54.71;100568.72;5052468;28;20133;-57
2022/06/17 12:27:11;;;;;;;4.18;2.50;;;;;;;20.63;54.61;100560.78;5052343;28;20044;-57
2022/06/17 12:29:55;;;;;;;3.88;2.33;;;;;;;20.65;54.54;100551.09;5053440;28;20063;-57
2022/06/17 12:33:01;;;;;;;4.05;2.53;;;;;;;20.69;54.58;100549.28;5053481;28;20051;-56
2022/06/17 12:35:50;;;;;;;5.63;2.30;;;;;;;20.71;54.59;100550.09;5052410;28;20118;-56
2022/06/17 12:38:57;;;;;;;4.90;2.45;;;;;;;20.75;54.49;100548.31;5052162;28;20114;-56
2022/06/17 12:42:05;;;;;;;2.80;2.20;;;;;;;20.77;54.79;100549.19;5055570;28;20117;-57
2022/06/17 12:45:06;;;;;;;9.18;2.70;;;;;;;20.78;54.78;100541.25;5073163;28;20052;-56
2022/06/17 12:48:09;;;;;;;6.63;2.42;;;;;;;20.81;54.71;100530.66;5073594;28;20055;-57
2022/06/17 12:54:22;;;;;;;3.42;2.50;;;;;;;20.86;54.47;100527.94;5073174;28;20059;-56
2022/06/17 12:57:21;;;;;;;3.95;2.20;;;;;;;20.87;54.52;100516.50;5058246;28;20043;-56
2022/06/17 13:00:05;;;;;;;3.03;2.08;;;;;;;20.88;54.36;100517.34;5073529;28;20113;-55
2022/06/17 13:03:11;;;;;;;2.28;1.50;;;;;;;20.90;54.39;100518.19;5057969;28;20055;-56
2022/06/17 13:06:02;;;;;;;2.42;1.70;;;;;;;20.90;54.37;100518.19;5073043;28;20541;-57
2022/06/17 13:09:19;;;;;;;7.03;1.85;;;;;;;20.90;54.34;100503.28;5057965;28;20102;-56
2022/06/17 13:12:22;;;;;;;4.80;1.90;;;;;;;20.91;54.57;100517.31;5073185;28;20075;-55
2022/06/17 13:15:20;;;;;;;4.35;1.75;;;;;;;20.94;54.13;100514.63;5057694;28;20127;-57
2022/06/17 13:18:11;;;;;;;6.25;1.83;;;;;;;20.95;53.78;100505.81;5072995;28;20522;-57
2022/06/17 13:21:38;;;;;;;5.88;1.88;;;;;;;20.98;54.06;100511.03;5058200;28;20511;-57
2022/06/17 13:24:34;;;;;;;3.92;1.70;;;;;;;21.00;54.01;100511.88;5072927;28;20082;-57
2022/06/17 13:27:28;;;;;;;2.95;1.90;;;;;;;21.01;53.65;100510.97;5072944;28;20063;-56
2022/06/17 13:30:44;;;;;;;2.30;1.60;;;;;;;21.05;53.93;100499.44;5058026;28;20097;-57
2022/06/17 13:33:47;;;;;;;4.95;1.80;;;;;;;21.06;53.84;100492.44;5068799;28;20079;-57
2022/06/17 13:36:39;;;;;;;2.53;1.60;;;;;;;21.08;53.67;100498.53;5072590;28;20123;-57